Mocajuba, Brazil
Current Conditions -  °F | °C
As of 4:00 PM on Sunday 21 Dec 2014 (Local Time) from SBBE Reporting Station
Broken Clouds Broken Clouds  
Wind Chill: 84°   Ceiling: 3000
Heat Index: 94°   Visibility: 6mi
Dew Point: 77°   Wind: 12mph
Humidity: 79%   Direction: 360°N
Pressure: 29.77"   Gusts: NA
Location:  2.58°S, 49.51°W
Report Text: SBBE 211900Z 36010KT 9999 BKN030 FEW035TCU 29/25 Q1008
Loading
Personal Weather Stations






























Interactive Weather Map New forecast layout! Learn more

10-Day Weather Forecast

Advertisements
Track Severe Weather on mobile